Yemassee, South Carolina
Current Conditions -  °F | °C
As of 3:56 PM on Wednesday 26 Nov 2014 (Local Time) from KNBC Reporting Station
Scattered Clouds Scattered Clouds  
Wind Chill: 58°   Ceiling: Unl
Heat Index: 58°   Visibility: 10mi
Dew Point: 45°   Wind: 7mph
Humidity: 62%   Direction: 270°W
Pressure: 30.06"   Gusts: NA
Location:  32.69°N, 80.85°W
Report Text: KNBC 262056Z 27006KT 10SM SCT030 14/07 A3006 RMK AO2 SLP178 T01440072 53010
Loading
Personal Weather Stations






























Interactive Weather Map New forecast layout! Learn more

10-Day Weather Forecast

Advertisements
Track Severe Weather on mobile